sensor_id;sensor_type;location;lat;lon;timestamp;P1;durP1;ratioP1;P2;durP2;ratioP2
44508;SDS011;30214;52.246;14.408;2023-04-27T00:01:29;5.38;;;2.92;;
44508;SDS011;30214;52.246;14.408;2023-04-27T00:03:56;8.65;;;3.00;;
44508;SDS011;30214;52.246;14.408;2023-04-27T00:06:23;7.88;;;3.00;;
44508;SDS011;30214;52.246;14.408;2023-04-27T00:08:51;7.55;;;2.92;;
44508;SDS011;30214;52.246;14.408;2023-04-27T00:11:18;8.65;;;3.03;;
44508;SDS011;30214;52.246;14.408;2023-04-27T00:13:45;6.35;;;3.17;;
44508;SDS011;30214;52.246;14.408;2023-04-27T00:16:14;10.88;;;3.53;;
44508;SDS011;30214;52.246;14.408;2023-04-27T00:18:41;8.32;;;3.78;;
44508;SDS011;30214;52.246;14.408;2023-04-27T00:21:08;7.45;;;3.40;;
44508;SDS011;30214;52.246;14.408;2023-04-27T00:23:35;7.45;;;3.22;;
44508;SDS011;30214;52.246;14.408;2023-04-27T00:26:02;7.03;;;3.90;;
44508;SDS011;30214;52.246;14.408;2023-04-27T00:28:29;6.63;;;3.20;;
44508;SDS011;30214;52.246;14.408;2023-04-27T00:30:57;7.60;;;3.67;;
44508;SDS011;30214;52.246;14.408;2023-04-27T00:33:28;8.10;;;3.20;;
44508;SDS011;30214;52.246;14.408;2023-04-27T00:35:58;8.52;;;3.35;;
44508;SDS011;30214;52.246;14.408;2023-04-27T00:38:25;7.30;;;3.20;;
44508;SDS011;30214;52.246;14.408;2023-04-27T00:40:59;7.43;;;3.47;;
44508;SDS011;30214;52.246;14.408;2023-04-27T00:43:27;7.60;;;4.15;;
44508;SDS011;30214;52.246;14.408;2023-04-27T00:45:54;7.35;;;3.22;;
44508;SDS011;30214;52.246;14.408;2023-04-27T00:48:21;8.07;;;3.35;;
44508;SDS011;30214;52.246;14.408;2023-04-27T00:50:50;6.97;;;3.83;;
44508;SDS011;30214;52.246;14.408;2023-04-27T00:53:17;10.20;;;3.58;;
44508;SDS011;30214;52.246;14.408;2023-04-27T00:55:47;6.15;;;4.20;;
44508;SDS011;30214;52.246;14.408;2023-04-27T00:58:14;10.57;;;4.63;;
44508;SDS011;30214;52.246;14.408;2023-04-27T01:00:41;7.38;;;3.40;;
44508;SDS011;30214;52.246;14.408;2023-04-27T01:03:09;6.28;;;3.65;;
44508;SDS011;30214;52.246;14.408;2023-04-27T01:05:36;7.13;;;3.53;;
44508;SDS011;30214;52.246;14.408;2023-04-27T01:08:04;9.40;;;4.28;;
44508;SDS011;30214;52.246;14.408;2023-04-27T01:10:32;6.88;;;3.63;;
44508;SDS011;30214;52.246;14.408;2023-04-27T01:13:00;7.55;;;3.70;;
44508;SDS011;30214;52.246;14.408;2023-04-27T01:15:29;7.53;;;3.50;;
44508;SDS011;30214;52.246;14.408;2023-04-27T01:17:57;6.30;;;3.83;;
44508;SDS011;30214;52.246;14.408;2023-04-27T01:20:26;8.70;;;3.58;;
44508;SDS011;30214;52.246;14.408;2023-04-27T01:22:54;11.05;;;3.90;;
44508;SDS011;30214;52.246;14.408;2023-04-27T01:25:23;8.25;;;4.00;;
44508;SDS011;30214;52.246;14.408;2023-04-27T01:27:50;5.30;;;3.35;;
44508;SDS011;30214;52.246;14.408;2023-04-27T01:30:17;6.78;;;3.92;;
44508;SDS011;30214;52.246;14.408;2023-04-27T01:32:46;8.35;;;3.67;;
44508;SDS011;30214;52.246;14.408;2023-04-27T01:35:17;7.25;;;3.47;;
44508;SDS011;30214;52.246;14.408;2023-04-27T01:37:44;7.13;;;3.50;;
44508;SDS011;30214;52.246;14.408;2023-04-27T01:40:11;8.38;;;3.47;;
44508;SDS011;30214;52.246;14.408;2023-04-27T01:42:41;5.57;;;3.35;;
44508;SDS011;30214;52.246;14.408;2023-04-27T01:45:08;6.32;;;3.05;;
44508;SDS011;30214;52.246;14.408;2023-04-27T01:47:36;5.70;;;3.53;;
44508;SDS011;30214;52.246;14.408;2023-04-27T01:50:04;8.38;;;3.97;;
44508;SDS011;30214;52.246;14.408;2023-04-27T01:52:32;8.02;;;3.78;;
44508;SDS011;30214;52.246;14.408;2023-04-27T01:55:01;10.13;;;3.72;;
44508;SDS011;30214;52.246;14.408;2023-04-27T01:57:28;6.97;;;3.60;;
44508;SDS011;30214;52.246;14.408;2023-04-27T01:59:56;8.23;;;3.75;;
44508;SDS011;30214;52.246;14.408;2023-04-27T02:02:23;5.30;;;3.50;;
44508;SDS011;30214;52.246;14.408;2023-04-27T02:04:50;8.15;;;3.80;;
44508;SDS011;30214;52.246;14.408;2023-04-27T02:07:17;5.43;;;3.63;;
44508;SDS011;30214;52.246;14.408;2023-04-27T02:09:45;10.30;;;4.07;;
44508;SDS011;30214;52.246;14.408;2023-04-27T02:12:12;8.25;;;3.40;;
44508;SDS011;30214;52.246;14.408;2023-04-27T02:14:39;8.73;;;3.72;;
44508;SDS011;30214;52.246;14.408;2023-04-27T02:17:08;9.50;;;3.95;;
44508;SDS011;30214;52.246;14.408;2023-04-27T02:19:35;8.60;;;4.03;;
44508;SDS011;30214;52.246;14.408;2023-04-27T02:22:04;7.40;;;3.72;;
44508;SDS011;30214;52.246;14.408;2023-04-27T02:24:31;6.40;;;3.40;;
44508;SDS011;30214;52.246;14.408;2023-04-27T02:26:59;8.18;;;3.67;;
44508;SDS011;30214;52.246;14.408;2023-04-27T02:29:28;9.60;;;3.90;;
44508;SDS011;30214;52.246;14.408;2023-04-27T02:31:56;7.25;;;4.05;;
44508;SDS011;30214;52.246;14.408;2023-04-27T02:34:24;8.65;;;3.78;;
44508;SDS011;30214;52.246;14.408;2023-04-27T02:36:51;6.85;;;3.72;;
44508;SDS011;30214;52.246;14.408;2023-04-27T02:39:18;8.52;;;3.42;;
44508;SDS011;30214;52.246;14.408;2023-04-27T02:41:45;6.38;;;3.67;;
44508;SDS011;30214;52.246;14.408;2023-04-27T02:44:13;6.72;;;3.50;;
44508;SDS011;30214;52.246;14.408;2023-04-27T02:46:41;9.35;;;4.10;;
44508;SDS011;30214;52.246;14.408;2023-04-27T02:49:08;8.82;;;3.35;;
44508;SDS011;30214;52.246;14.408;2023-04-27T02:51:36;5.10;;;3.35;;
44508;SDS011;30214;52.246;14.408;2023-04-27T02:54:03;9.68;;;3.80;;
44508;SDS011;30214;52.246;14.408;2023-04-27T02:56:31;8.25;;;4.28;;
44508;SDS011;30214;52.246;14.408;2023-04-27T02:58:58;8.23;;;4.07;;
44508;SDS011;30214;52.246;14.408;2023-04-27T03:01:25;10.15;;;3.95;;
44508;SDS011;30214;52.246;14.408;2023-04-27T03:03:52;9.45;;;4.00;;
44508;SDS011;30214;52.246;14.408;2023-04-27T03:06:19;10.52;;;4.00;;
44508;SDS011;30214;52.246;14.408;2023-04-27T03:08:48;9.68;;;4.43;;
44508;SDS011;30214;52.246;14.408;2023-04-27T03:11:15;8.02;;;3.80;;
44508;SDS011;30214;52.246;14.408;2023-04-27T03:13:42;8.60;;;4.07;;
44508;SDS011;30214;52.246;14.408;2023-04-27T03:16:09;10.50;;;4.32;;
44508;SDS011;30214;52.246;14.408;2023-04-27T03:18:37;8.75;;;4.50;;
44508;SDS011;30214;52.246;14.408;2023-04-27T03:21:06;12.20;;;4.60;;
44508;SDS011;30214;52.246;14.408;2023-04-27T03:23:33;6.18;;;3.90;;
44508;SDS011;30214;52.246;14.408;2023-04-27T03:26:05;6.55;;;3.92;;
44508;SDS011;30214;52.246;14.408;2023-04-27T03:28:33;6.80;;;3.97;;
44508;SDS011;30214;52.246;14.408;2023-04-27T03:31:03;9.27;;;4.85;;
44508;SDS011;30214;52.246;14.408;2023-04-27T03:33:31;9.57;;;3.72;;
44508;SDS011;30214;52.246;14.408;2023-04-27T03:35:58;8.95;;;3.83;;
44508;SDS011;30214;52.246;14.408;2023-04-27T03:38:25;5.85;;;3.70;;
44508;SDS011;30214;52.246;14.408;2023-04-27T03:40:53;8.80;;;3.63;;
44508;SDS011;30214;52.246;14.408;2023-04-27T03:43:22;7.60;;;3.90;;
44508;SDS011;30214;52.246;14.408;2023-04-27T03:45:53;8.18;;;4.25;;
44508;SDS011;30214;52.246;14.408;2023-04-27T03:48:20;8.85;;;4.40;;
44508;SDS011;30214;52.246;14.408;2023-04-27T03:50:51;11.48;;;5.68;;
44508;SDS011;30214;52.246;14.408;2023-04-27T03:53:19;10.65;;;5.80;;
44508;SDS011;30214;52.246;14.408;2023-04-27T03:55:47;10.45;;;5.50;;
44508;SDS011;30214;52.246;14.408;2023-04-27T03:58:14;9.27;;;5.80;;
44508;SDS011;30214;52.246;14.408;2023-04-27T04:01:03;12.57;;;7.07;;
44508;SDS011;30214;52.246;14.408;2023-04-27T04:03:30;14.63;;;6.43;;
44508;SDS011;30214;52.246;14.408;2023-04-27T04:05:57;12.30;;;6.65;;
44508;SDS011;30214;52.246;14.408;2023-04-27T04:08:24;16.85;;;8.00;;
44508;SDS011;30214;52.246;14.408;2023-04-27T04:10:52;11.13;;;6.45;;
44508;SDS011;30214;52.246;14.408;2023-04-27T04:13:20;14.23;;;6.63;;
44508;SDS011;30214;52.246;14.408;2023-04-27T04:15:47;9.30;;;5.63;;
44508;SDS011;30214;52.246;14.408;2023-04-27T04:18:15;11.00;;;6.20;;
44508;SDS011;30214;52.246;14.408;2023-04-27T04:20:42;14.48;;;6.50;;
44508;SDS011;30214;52.246;14.408;2023-04-27T04:23:09;11.80;;;7.20;;
44508;SDS011;30214;52.246;14.408;2023-04-27T04:25:37;12.48;;;7.30;;
44508;SDS011;30214;52.246;14.408;2023-04-27T04:28:06;12.68;;;7.18;;
44508;SDS011;30214;52.246;14.408;2023-04-27T04:30:33;9.93;;;7.38;;
44508;SDS011;30214;52.246;14.408;2023-04-27T04:33:00;9.45;;;6.20;;
44508;SDS011;30214;52.246;14.408;2023-04-27T04:35:28;9.45;;;5.88;;
44508;SDS011;30214;52.246;14.408;2023-04-27T04:37:57;7.13;;;4.78;;
44508;SDS011;30214;52.246;14.408;2023-04-27T04:40:24;8.18;;;5.10;;
44508;SDS011;30214;52.246;14.408;2023-04-27T04:42:52;11.48;;;5.00;;
44508;SDS011;30214;52.246;14.408;2023-04-27T04:45:19;8.57;;;4.82;;
44508;SDS011;30214;52.246;14.408;2023-04-27T04:47:47;10.77;;;6.63;;
44508;SDS011;30214;52.246;14.408;2023-04-27T04:50:15;8.55;;;5.68;;
44508;SDS011;30214;52.246;14.408;2023-04-27T04:52:44;9.90;;;5.47;;
44508;SDS011;30214;52.246;14.408;2023-04-27T04:55:11;9.48;;;4.78;;
44508;SDS011;30214;52.246;14.408;2023-04-27T04:57:39;18.40;;;9.38;;
44508;SDS011;30214;52.246;14.408;2023-04-27T05:00:07;17.92;;;7.68;;
44508;SDS011;30214;52.246;14.408;2023-04-27T05:02:37;14.45;;;6.68;;
44508;SDS011;30214;52.246;14.408;2023-04-27T05:05:06;13.15;;;5.30;;
44508;SDS011;30214;52.246;14.408;2023-04-27T05:07:34;11.95;;;5.15;;
44508;SDS011;30214;52.246;14.408;2023-04-27T05:10:03;14.35;;;5.93;;
44508;SDS011;30214;52.246;14.408;2023-04-27T05:12:31;12.70;;;4.57;;
44508;SDS011;30214;52.246;14.408;2023-04-27T05:14:58;8.45;;;4.38;;
44508;SDS011;30214;52.246;14.408;2023-04-27T05:17:25;8.80;;;3.75;;
44508;SDS011;30214;52.246;14.408;2023-04-27T05:19:52;8.23;;;3.80;;
44508;SDS011;30214;52.246;14.408;2023-04-27T05:22:19;11.15;;;4.40;;
44508;SDS011;30214;52.246;14.408;2023-04-27T05:24:46;10.32;;;4.10;;
44508;SDS011;30214;52.246;14.408;2023-04-27T05:27:15;7.20;;;3.85;;
44508;SDS011;30214;52.246;14.408;2023-04-27T05:29:42;6.95;;;3.72;;
44508;SDS011;30214;52.246;14.408;2023-04-27T05:32:09;7.85;;;3.60;;
44508;SDS011;30214;52.246;14.408;2023-04-27T05:34:36;7.68;;;4.10;;
44508;SDS011;30214;52.246;14.408;2023-04-27T05:37:03;7.35;;;3.47;;
44508;SDS011;30214;52.246;14.408;2023-04-27T05:39:30;7.43;;;3.35;;
44508;SDS011;30214;52.246;14.408;2023-04-27T05:41:57;7.55;;;4.07;;
44508;SDS011;30214;52.246;14.408;2023-04-27T05:44:25;7.35;;;3.80;;
44508;SDS011;30214;52.246;14.408;2023-04-27T05:46:53;9.43;;;3.60;;
44508;SDS011;30214;52.246;14.408;2023-04-27T05:49:21;6.70;;;3.38;;
44508;SDS011;30214;52.246;14.408;2023-04-27T05:51:48;8.63;;;3.30;;
44508;SDS011;30214;52.246;14.408;2023-04-27T05:54:15;9.38;;;3.65;;
44508;SDS011;30214;52.246;14.408;2023-04-27T05:56:42;9.70;;;3.45;;
44508;SDS011;30214;52.246;14.408;2023-04-27T05:59:09;7.70;;;3.55;;
44508;SDS011;30214;52.246;14.408;2023-04-27T06:01:38;6.10;;;3.35;;
44508;SDS011;30214;52.246;14.408;2023-04-27T06:04:05;6.53;;;2.72;;
44508;SDS011;30214;52.246;14.408;2023-04-27T06:06:33;6.65;;;2.70;;
44508;SDS011;30214;52.246;14.408;2023-04-27T06:09:00;10.75;;;3.28;;
44508;SDS011;30214;52.246;14.408;2023-04-27T06:11:27;7.47;;;2.90;;
44508;SDS011;30214;52.246;14.408;2023-04-27T06:13:54;7.65;;;2.47;;
44508;SDS011;30214;52.246;14.408;2023-04-27T06:16:21;13.00;;;3.28;;
44508;SDS011;30214;52.246;14.408;2023-04-27T06:18:50;7.55;;;2.75;;
44508;SDS011;30214;52.246;14.408;2023-04-27T06:21:17;9.68;;;3.05;;
44508;SDS011;30214;52.246;14.408;2023-04-27T06:23:44;8.25;;;2.75;;
44508;SDS011;30214;52.246;14.408;2023-04-27T06:26:12;6.70;;;2.40;;
44508;SDS011;30214;52.246;14.408;2023-04-27T06:28:39;11.00;;;2.33;;
44508;SDS011;30214;52.246;14.408;2023-04-27T06:31:06;7.95;;;2.40;;
44508;SDS011;30214;52.246;14.408;2023-04-27T06:33:33;9.80;;;2.42;;
44508;SDS011;30214;52.246;14.408;2023-04-27T06:36:01;7.25;;;2.45;;
44508;SDS011;30214;52.246;14.408;2023-04-27T06:38:29;6.55;;;2.03;;
44508;SDS011;30214;52.246;14.408;2023-04-27T06:40:56;7.45;;;2.55;;
44508;SDS011;30214;52.246;14.408;2023-04-27T06:43:23;7.95;;;1.95;;
44508;SDS011;30214;52.246;14.408;2023-04-27T06:45:50;13.23;;;2.40;;
44508;SDS011;30214;52.246;14.408;2023-04-27T06:48:17;8.93;;;2.03;;
44508;SDS011;30214;52.246;14.408;2023-04-27T06:50:44;5.97;;;2.10;;
44508;SDS011;30214;52.246;14.408;2023-04-27T06:53:13;6.78;;;2.10;;
44508;SDS011;30214;52.246;14.408;2023-04-27T06:55:41;4.00;;;1.67;;
44508;SDS011;30214;52.246;14.408;2023-04-27T06:58:08;5.43;;;2.00;;
44508;SDS011;30214;52.246;14.408;2023-04-27T07:00:35;8.70;;;1.95;;
44508;SDS011;30214;52.246;14.408;2023-04-27T07:03:02;6.18;;;1.85;;
44508;SDS011;30214;52.246;14.408;2023-04-27T07:05:30;8.82;;;2.20;;
44508;SDS011;30214;52.246;14.408;2023-04-27T07:07:59;6.22;;;1.83;;
44508;SDS011;30214;52.246;14.408;2023-04-27T07:10:27;8.93;;;2.00;;
44508;SDS011;30214;52.246;14.408;2023-04-27T07:12:54;6.97;;;2.20;;
44508;SDS011;30214;52.246;14.408;2023-04-27T07:15:21;11.48;;;2.50;;
44508;SDS011;30214;52.246;14.408;2023-04-27T07:17:49;7.20;;;2.00;;
44508;SDS011;30214;52.246;14.408;2023-04-27T07:20:18;6.28;;;2.00;;
44508;SDS011;30214;52.246;14.408;2023-04-27T07:22:45;6.85;;;1.77;;
44508;SDS011;30214;52.246;14.408;2023-04-27T07:25:12;8.48;;;2.17;;
44508;SDS011;30214;52.246;14.408;2023-04-27T07:27:41;6.55;;;2.00;;
44508;SDS011;30214;52.246;14.408;2023-04-27T07:30:09;9.27;;;2.22;;
44508;SDS011;30214;52.246;14.408;2023-04-27T07:32:38;7.28;;;2.10;;
44508;SDS011;30214;52.246;14.408;2023-04-27T07:35:06;5.97;;;2.22;;
44508;SDS011;30214;52.246;14.408;2023-04-27T07:37:35;5.13;;;1.92;;
44508;SDS011;30214;52.246;14.408;2023-04-27T07:40:02;6.82;;;2.42;;
44508;SDS011;30214;52.246;14.408;2023-04-27T07:42:36;7.43;;;1.88;;
44508;SDS011;30214;52.246;14.408;2023-04-27T07:45:05;6.88;;;1.88;;
44508;SDS011;30214;52.246;14.408;2023-04-27T07:47:34;5.18;;;1.92;;
44508;SDS011;30214;52.246;14.408;2023-04-27T07:50:01;3.45;;;1.90;;
44508;SDS011;30214;52.246;14.408;2023-04-27T07:52:30;10.48;;;2.42;;
44508;SDS011;30214;52.246;14.408;2023-04-27T07:54:57;4.55;;;1.38;;
44508;SDS011;30214;52.246;14.408;2023-04-27T07:57:24;5.90;;;2.08;;
44508;SDS011;30214;52.246;14.408;2023-04-27T07:59:51;4.95;;;1.55;;
44508;SDS011;30214;52.246;14.408;2023-04-27T08:02:20;7.47;;;1.40;;
44508;SDS011;30214;52.246;14.408;2023-04-27T08:04:47;8.27;;;1.73;;
44508;SDS011;30214;52.246;14.408;2023-04-27T08:07:15;7.85;;;1.95;;
44508;SDS011;30214;52.246;14.408;2023-04-27T08:09:42;6.35;;;2.10;;
44508;SDS011;30214;52.246;14.408;2023-04-27T08:12:10;9.25;;;2.00;;
44508;SDS011;30214;52.246;14.408;2023-04-27T08:14:37;7.75;;;1.98;;
44508;SDS011;30214;52.246;14.408;2023-04-27T08:17:04;6.60;;;1.95;;
44508;SDS011;30214;52.246;14.408;2023-04-27T08:19:32;7.35;;;2.22;;
44508;SDS011;30214;52.246;14.408;2023-04-27T08:21:59;8.02;;;2.20;;
44508;SDS011;30214;52.246;14.408;2023-04-27T08:24:26;8.18;;;2.10;;
44508;SDS011;30214;52.246;14.408;2023-04-27T08:26:53;7.25;;;2.38;;
44508;SDS011;30214;52.246;14.408;2023-04-27T08:29:20;5.18;;;2.03;;
44508;SDS011;30214;52.246;14.408;2023-04-27T08:31:48;5.25;;;1.90;;
44508;SDS011;30214;52.246;14.408;2023-04-27T08:34:15;8.40;;;2.58;;
44508;SDS011;30214;52.246;14.408;2023-04-27T08:36:43;10.88;;;2.30;;
44508;SDS011;30214;52.246;14.408;2023-04-27T08:39:10;6.68;;;2.42;;
44508;SDS011;30214;52.246;14.408;2023-04-27T08:41:39;8.60;;;2.17;;
44508;SDS011;30214;52.246;14.408;2023-04-27T08:44:08;8.80;;;2.70;;
44508;SDS011;30214;52.246;14.408;2023-04-27T08:46:36;8.70;;;2.33;;
44508;SDS011;30214;52.246;14.408;2023-04-27T08:49:04;7.05;;;2.22;;
44508;SDS011;30214;52.246;14.408;2023-04-27T08:51:31;8.48;;;2.53;;
44508;SDS011;30214;52.246;14.408;2023-04-27T08:54:01;9.93;;;2.22;;
44508;SDS011;30214;52.246;14.408;2023-04-27T08:56:28;5.32;;;2.33;;
44508;SDS011;30214;52.246;14.408;2023-04-27T08:58:56;7.70;;;2.55;;
44508;SDS011;30214;52.246;14.408;2023-04-27T09:01:24;9.57;;;2.97;;
44508;SDS011;30214;52.246;14.408;2023-04-27T09:03:54;7.10;;;2.53;;
44508;SDS011;30214;52.246;14.408;2023-04-27T09:06:28;11.95;;;3.00;;
44508;SDS011;30214;52.246;14.408;2023-04-27T09:08:56;6.65;;;2.53;;
44508;SDS011;30214;52.246;14.408;2023-04-27T09:11:29;6.90;;;2.40;;
44508;SDS011;30214;52.246;14.408;2023-04-27T09:13:58;6.50;;;2.50;;
44508;SDS011;30214;52.246;14.408;2023-04-27T09:16:27;7.45;;;2.80;;
44508;SDS011;30214;52.246;14.408;2023-04-27T09:18:56;12.02;;;2.58;;
44508;SDS011;30214;52.246;14.408;2023-04-27T09:21:24;6.55;;;2.20;;
44508;SDS011;30214;52.246;14.408;2023-04-27T09:23:53;7.18;;;2.65;;
44508;SDS011;30214;52.246;14.408;2023-04-27T09:26:21;8.23;;;2.40;;
44508;SDS011;30214;52.246;14.408;2023-04-27T09:28:52;5.72;;;2.25;;
44508;SDS011;30214;52.246;14.408;2023-04-27T09:31:29;8.15;;;2.72;;
44508;SDS011;30214;52.246;14.408;2023-04-27T09:33:56;8.40;;;2.92;;
44508;SDS011;30214;52.246;14.408;2023-04-27T09:36:24;10.90;;;2.70;;
44508;SDS011;30214;52.246;14.408;2023-04-27T09:38:51;7.63;;;2.88;;
44508;SDS011;30214;52.246;14.408;2023-04-27T09:41:19;8.55;;;2.30;;
44508;SDS011;30214;52.246;14.408;2023-04-27T09:43:47;9.63;;;2.92;;
44508;SDS011;30214;52.246;14.408;2023-04-27T09:46:16;6.38;;;2.47;;
44508;SDS011;30214;52.246;14.408;2023-04-27T09:48:43;9.45;;;3.03;;
44508;SDS011;30214;52.246;14.408;2023-04-27T09:51:10;5.72;;;2.60;;
44508;SDS011;30214;52.246;14.408;2023-04-27T09:53:43;8.07;;;3.13;;
44508;SDS011;30214;52.246;14.408;2023-04-27T09:56:28;6.65;;;2.80;;
44508;SDS011;30214;52.246;14.408;2023-04-27T09:59:14;7.60;;;2.97;;
44508;SDS011;30214;52.246;14.408;2023-04-27T10:01:58;9.40;;;2.70;;
44508;SDS011;30214;52.246;14.408;2023-04-27T10:04:33;10.07;;;2.92;;
44508;SDS011;30214;52.246;14.408;2023-04-27T10:07:14;8.48;;;3.38;;
44508;SDS011;30214;52.246;14.408;2023-04-27T10:09:45;8.68;;;2.80;;
44508;SDS011;30214;52.246;14.408;2023-04-27T10:12:16;11.10;;;3.10;;
44508;SDS011;30214;52.246;14.408;2023-04-27T10:14:49;6.95;;;3.10;;
44508;SDS011;30214;52.246;14.408;2023-04-27T10:17:22;8.15;;;3.03;;
44508;SDS011;30214;52.246;14.408;2023-04-27T10:19:52;8.45;;;4.60;;
44508;SDS011;30214;52.246;14.408;2023-04-27T10:22:21;7.90;;;2.95;;
44508;SDS011;30214;52.246;14.408;2023-04-27T10:24:49;7.63;;;3.00;;
44508;SDS011;30214;52.246;14.408;2023-04-27T10:27:18;7.85;;;3.13;;
44508;SDS011;30214;52.246;14.408;2023-04-27T10:29:47;8.13;;;3.22;;
44508;SDS011;30214;52.246;14.408;2023-04-27T10:32:21;5.72;;;2.72;;
44508;SDS011;30214;52.246;14.408;2023-04-27T10:34:50;6.45;;;3.22;;
44508;SDS011;30214;52.246;14.408;2023-04-27T10:37:37;6.90;;;2.67;;
44508;SDS011;30214;52.246;14.408;2023-04-27T10:40:06;8.77;;;3.20;;
44508;SDS011;30214;52.246;14.408;2023-04-27T10:42:34;5.97;;;2.72;;
44508;SDS011;30214;52.246;14.408;2023-04-27T10:45:02;6.72;;;2.55;;
44508;SDS011;30214;52.246;14.408;2023-04-27T10:47:38;5.82;;;2.92;;
44508;SDS011;30214;52.246;14.408;2023-04-27T10:50:07;5.65;;;2.80;;
44508;SDS011;30214;52.246;14.408;2023-04-27T10:52:40;8.63;;;3.25;;
44508;SDS011;30214;52.246;14.408;2023-04-27T10:55:14;7.32;;;3.20;;
44508;SDS011;30214;52.246;14.408;2023-04-27T10:57:49;7.72;;;2.90;;
44508;SDS011;30214;52.246;14.408;2023-04-27T11:00:21;9.25;;;3.45;;
44508;SDS011;30214;52.246;14.408;2023-04-27T11:02:51;8.18;;;3.05;;
44508;SDS011;30214;52.246;14.408;2023-04-27T11:05:19;6.00;;;2.50;;
44508;SDS011;30214;52.246;14.408;2023-04-27T11:07:49;7.80;;;2.45;;
44508;SDS011;30214;52.246;14.408;2023-04-27T11:10:17;8.20;;;2.95;;
44508;SDS011;30214;52.246;14.408;2023-04-27T11:12:44;5.85;;;2.50;;
44508;SDS011;30214;52.246;14.408;2023-04-27T11:15:12;6.38;;;2.92;;
44508;SDS011;30214;52.246;14.408;2023-04-27T11:17:39;7.03;;;2.50;;
44508;SDS011;30214;52.246;14.408;2023-04-27T11:20:08;6.13;;;2.05;;
44508;SDS011;30214;52.246;14.408;2023-04-27T11:22:42;6.72;;;2.60;;
44508;SDS011;30214;52.246;14.408;2023-04-27T11:25:11;6.30;;;2.90;;
44508;SDS011;30214;52.246;14.408;2023-04-27T11:27:38;9.88;;;2.60;;
44508;SDS011;30214;52.246;14.408;2023-04-27T11:30:17;11.05;;;3.20;;
44508;SDS011;30214;52.246;14.408;2023-04-27T11:32:46;10.25;;;2.78;;
44508;SDS011;30214;52.246;14.408;2023-04-27T11:35:15;9.15;;;2.72;;
44508;SDS011;30214;52.246;14.408;2023-04-27T11:37:42;6.28;;;2.47;;
44508;SDS011;30214;52.246;14.408;2023-04-27T11:40:12;5.47;;;2.70;;
44508;SDS011;30214;52.246;14.408;2023-04-27T11:42:39;6.88;;;2.58;;
44508;SDS011;30214;52.246;14.408;2023-04-27T11:45:12;7.03;;;2.65;;
44508;SDS011;30214;52.246;14.408;2023-04-27T11:47:44;4.55;;;2.47;;
44508;SDS011;30214;52.246;14.408;2023-04-27T11:50:12;7.05;;;2.55;;
44508;SDS011;30214;52.246;14.408;2023-04-27T11:52:40;8.23;;;2.78;;
44508;SDS011;30214;52.246;14.408;2023-04-27T11:55:08;4.70;;;2.00;;
44508;SDS011;30214;52.246;14.408;2023-04-27T11:57:40;6.78;;;2.22;;
44508;SDS011;30214;52.246;14.408;2023-04-27T12:00:07;7.25;;;2.70;;
44508;SDS011;30214;52.246;14.408;2023-04-27T12:02:41;8.27;;;2.25;;
44508;SDS011;30214;52.246;14.408;2023-04-27T12:05:08;6.75;;;2.40;;
44508;SDS011;30214;52.246;14.408;2023-04-27T12:07:37;5.90;;;2.42;;
44508;SDS011;30214;52.246;14.408;2023-04-27T12:10:05;5.97;;;2.45;;
44508;SDS011;30214;52.246;14.408;2023-04-27T12:12:33;6.30;;;2.00;;
44508;SDS011;30214;52.246;14.408;2023-04-27T12:15:01;5.30;;;2.00;;
44508;SDS011;30214;52.246;14.408;2023-04-27T12:17:28;5.80;;;2.30;;
44508;SDS011;30214;52.246;14.408;2023-04-27T12:19:55;5.72;;;2.45;;
44508;SDS011;30214;52.246;14.408;2023-04-27T12:22:22;4.03;;;1.90;;
44508;SDS011;30214;52.246;14.408;2023-04-27T12:24:50;5.65;;;2.10;;
44508;SDS011;30214;52.246;14.408;2023-04-27T12:27:18;4.07;;;2.00;;
44508;SDS011;30214;52.246;14.408;2023-04-27T12:29:45;8.73;;;2.45;;
44508;SDS011;30214;52.246;14.408;2023-04-27T12:32:12;8.93;;;3.17;;
44508;SDS011;30214;52.246;14.408;2023-04-27T12:34:39;6.00;;;1.92;;
44508;SDS011;30214;52.246;14.408;2023-04-27T12:37:07;3.45;;;2.05;;
44508;SDS011;30214;52.246;14.408;2023-04-27T12:39:34;4.60;;;2.00;;
44508;SDS011;30214;52.246;14.408;2023-04-27T12:42:02;6.03;;;2.05;;
44508;SDS011;30214;52.246;14.408;2023-04-27T12:44:29;5.28;;;2.17;;
44508;SDS011;30214;52.246;14.408;2023-04-27T12:46:56;4.20;;;2.05;;
44508;SDS011;30214;52.246;14.408;2023-04-27T12:49:23;5.55;;;2.20;;
44508;SDS011;30214;52.246;14.408;2023-04-27T12:51:51;9.85;;;2.45;;
44508;SDS011;30214;52.246;14.408;2023-04-27T12:54:18;6.50;;;2.10;;
44508;SDS011;30214;52.246;14.408;2023-04-27T12:56:45;4.53;;;1.63;;
44508;SDS011;30214;52.246;14.408;2023-04-27T12:59:14;6.13;;;2.25;;
44508;SDS011;30214;52.246;14.408;2023-04-27T13:01:41;5.70;;;2.10;;
44508;SDS011;30214;52.246;14.408;2023-04-27T13:04:08;6.20;;;2.50;;
44508;SDS011;30214;52.246;14.408;2023-04-27T13:06:44;7.18;;;2.10;;
44508;SDS011;30214;52.246;14.408;2023-04-27T13:09:11;5.10;;;1.95;;
44508;SDS011;30214;52.246;14.408;2023-04-27T13:11:38;9.13;;;1.80;;
44508;SDS011;30214;52.246;14.408;2023-04-27T13:14:05;5.70;;;2.10;;
44508;SDS011;30214;52.246;14.408;2023-04-27T13:16:35;10.10;;;2.35;;
44508;SDS011;30214;52.246;14.408;2023-04-27T13:19:02;6.95;;;2.45;;
44508;SDS011;30214;52.246;14.408;2023-04-27T13:21:29;6.63;;;2.60;;
44508;SDS011;30214;52.246;14.408;2023-04-27T13:23:57;10.43;;;2.50;;
44508;SDS011;30214;52.246;14.408;2023-04-27T13:26:25;6.55;;;2.28;;
44508;SDS011;30214;52.246;14.408;2023-04-27T13:28:53;6.88;;;3.03;;
44508;SDS011;30214;52.246;14.408;2023-04-27T13:31:21;3.42;;;1.88;;
44508;SDS011;30214;52.246;14.408;2023-04-27T13:33:51;7.80;;;2.35;;
44508;SDS011;30214;52.246;14.408;2023-04-27T13:36:20;5.80;;;2.10;;
44508;SDS011;30214;52.246;14.408;2023-04-27T13:38:49;9.27;;;2.60;;
44508;SDS011;30214;52.246;14.408;2023-04-27T13:41:17;7.57;;;2.40;;
44508;SDS011;30214;52.246;14.408;2023-04-27T13:43:45;6.40;;;2.45;;
44508;SDS011;30214;52.246;14.408;2023-04-27T13:46:13;6.80;;;2.60;;
44508;SDS011;30214;52.246;14.408;2023-04-27T13:48:41;8.20;;;2.38;;
44508;SDS011;30214;52.246;14.408;2023-04-27T13:51:11;5.90;;;2.33;;
44508;SDS011;30214;52.246;14.408;2023-04-27T13:53:39;5.43;;;2.38;;
44508;SDS011;30214;52.246;14.408;2023-04-27T13:56:07;6.05;;;2.03;;
44508;SDS011;30214;52.246;14.408;2023-04-27T13:58:35;8.02;;;2.40;;
44508;SDS011;30214;52.246;14.408;2023-04-27T14:01:03;5.78;;;2.05;;
44508;SDS011;30214;52.246;14.408;2023-04-27T14:03:32;5.35;;;2.22;;
44508;SDS011;30214;52.246;14.408;2023-04-27T14:06:00;7.68;;;2.35;;
44508;SDS011;30214;52.246;14.408;2023-04-27T14:08:28;7.80;;;2.33;;
44508;SDS011;30214;52.246;14.408;2023-04-27T14:10:55;7.07;;;2.67;;
44508;SDS011;30214;52.246;14.408;2023-04-27T14:13:23;4.03;;;1.92;;
44508;SDS011;30214;52.246;14.408;2023-04-27T14:15:52;5.60;;;2.03;;
44508;SDS011;30214;52.246;14.408;2023-04-27T14:18:20;6.22;;;1.98;;
44508;SDS011;30214;52.246;14.408;2023-04-27T14:20:47;6.95;;;2.33;;
44508;SDS011;30214;52.246;14.408;2023-04-27T14:23:16;4.70;;;1.95;;
44508;SDS011;30214;52.246;14.408;2023-04-27T14:25:45;4.40;;;1.80;;
44508;SDS011;30214;52.246;14.408;2023-04-27T14:28:15;5.57;;;2.05;;
44508;SDS011;30214;52.246;14.408;2023-04-27T14:30:42;5.95;;;2.40;;
44508;SDS011;30214;52.246;14.408;2023-04-27T14:33:09;4.82;;;1.92;;
44508;SDS011;30214;52.246;14.408;2023-04-27T14:35:37;6.60;;;1.77;;
44508;SDS011;30214;52.246;14.408;2023-04-27T14:38:04;8.75;;;2.38;;
44508;SDS011;30214;52.246;14.408;2023-04-27T14:40:32;3.63;;;2.00;;